Terminal Aerodrome Forecast
Issued by NWS Wilmington, NC

Home | Current Version | Previous Version | Text Only | Print | Product List | Glossary On
Versions: 1 2 3 4 5 6 7 8 9 10 11 12 13 14 15 16 17 18 19 20 21
822
FTUS42 KILM 300005 CCA
TAFLBT
TAF COR
KLBT 300005Z 3000/3024 07005KT P6SM SCT025 BKN050
      TEMPO 3009/3012 BKN025
     FM301400 07008KT P6SM SCT025 BKN050 OVC090
     FM302200 10009KT P6SM VCSH BKN025 OVC050=

USA.gov is the U.S. government's official web portal to all federal, state and local government web resources and services.